Time;durP1;ratioP1;P1;durP2;ratioP2;P2;SDS_P1;SDS_P2;PMS_P1;PMS_P2;Temp;Humidity;BMP_temperature;BMP_pressure;BME280_temperature;BME280_humidity;BME280_pressure;Samples;Min_cycle;Max_cycle;Signal;HPM_P1;HPM_P2
2023/05/04 00:02:05;;;;;;;10.40;6.43;;;12.80;1.00;;;;;;4928550;29;20204;-88
2023/05/04 00:04:31;;;;;;;10.30;6.40;;;12.80;1.00;;;;;;4921026;29;20282;-87
2023/05/04 00:06:57;;;;;;;10.80;7.10;;;12.80;1.00;;;;;;4930558;29;20184;-89
2023/05/04 00:09:22;;;;;;;10.47;6.83;;;12.80;1.00;;;;;;4939430;29;20192;-86
2023/05/04 00:11:49;;;;;;;12.97;7.23;;;12.80;1.00;;;;;;4937708;29;20205;-89
2023/05/04 00:14:15;;;;;;;10.20;7.00;;;12.80;1.00;;;;;;4933527;29;20205;-86
2023/05/04 00:17:24;;;;;;;11.60;7.20;;;12.80;1.00;;;;;;4941109;29;20186;-86
2023/05/04 00:19:50;;;;;;;9.33;6.43;;;12.70;1.00;;;;;;4933916;29;20156;-91
2023/05/04 00:22:16;;;;;;;10.83;6.97;;;12.70;1.00;;;;;;4937656;29;20185;-85
2023/05/04 00:24:44;;;;;;;11.03;7.17;;;12.70;1.00;;;;;;4939251;29;20259;-88
2023/05/04 00:27:10;;;;;;;10.47;6.63;;;12.70;1.00;;;;;;4940143;29;20213;-88
2023/05/04 00:29:36;;;;;;;9.67;6.70;;;12.60;1.00;;;;;;4941024;29;20167;-89
2023/05/04 00:32:02;;;;;;;9.23;6.67;;;12.60;1.00;;;;;;4940139;29;20174;-84
2023/05/04 00:34:29;;;;;;;10.10;7.10;;;12.50;1.00;;;;;;4941401;29;20277;-83
2023/05/04 00:37:46;;;;;;;10.50;6.43;;;12.50;1.00;;;;;;4934928;29;20169;-91
2023/05/04 00:40:12;;;;;;;12.03;6.90;;;12.40;1.00;;;;;;4930698;29;20196;-89
2023/05/04 00:42:38;;;;;;;11.77;6.10;;;12.30;1.00;;;;;;4932563;29;20543;-90
2023/05/04 00:45:05;;;;;;;10.20;7.10;;;12.30;1.00;;;;;;4940591;29;20161;-87
2023/05/04 00:47:31;;;;;;;9.77;6.90;;;12.30;1.00;;;;;;4943729;29;20154;-89
2023/05/04 00:50:19;;;;;;;9.33;6.57;;;12.30;1.00;;;;;;4944613;29;20183;-85
2023/05/04 00:53:33;;;;;;;9.50;6.83;;;12.30;1.00;;;;;;4932313;29;20188;-90
2023/05/04 00:56:40;;;;;;;9.83;6.57;;;12.30;1.00;;;;;;4924463;29;20163;-90
2023/05/04 00:59:12;;;;;;;10.37;6.83;;;12.30;1.00;;;;;;4923832;29;20650;-86
2023/05/04 01:01:41;;;;;;;11.17;6.93;;;12.30;1.00;;;;;;4922711;29;20181;-85
2023/05/04 01:04:10;;;;;;;9.70;6.70;;;12.30;1.00;;;;;;4922365;29;20253;-84
2023/05/04 01:07:12;;;;;;;9.33;6.80;;;12.30;1.00;;;;;;4922989;29;20193;-86
2023/05/04 01:10:01;;;;;;;10.33;6.77;;;12.20;1.00;;;;;;4925556;29;20296;-87
2023/05/04 01:12:41;;;;;;;7.37;6.20;;;12.20;1.00;;;;;;4927701;29;20166;-89
2023/05/04 01:15:09;;;;;;;11.47;6.80;;;12.20;1.00;;;;;;4926223;29;20193;-82
2023/05/04 01:17:34;;;;;;;11.33;6.80;;;12.20;1.00;;;;;;4925274;29;20257;-85
2023/05/04 01:20:00;;;;;;;9.20;5.83;;;12.10;1.00;;;;;;4923438;29;20181;-90
2023/05/04 01:22:26;;;;;;;10.03;6.80;;;12.10;1.00;;;;;;4921737;29;20174;-87
2023/05/04 01:24:52;;;;;;;9.77;6.50;;;12.10;1.00;;;;;;4922475;29;20686;-91
2023/05/04 01:27:22;;;;;;;9.50;6.20;;;12.10;1.00;;;;;;4921243;29;20237;-89
2023/05/04 01:30:11;;;;;;;11.27;6.97;;;12.10;1.00;;;;;;4923345;29;20614;-89
2023/05/04 01:32:38;;;;;;;9.50;6.30;;;12.00;1.00;;;;;;4929269;29;20189;-90
2023/05/04 01:35:05;;;;;;;13.37;7.27;;;12.00;1.00;;;;;;4934249;29;20232;-90
2023/05/04 01:37:30;;;;;;;9.93;7.00;;;12.00;1.00;;;;;;4923633;29;20492;-90
2023/05/04 01:40:04;;;;;;;13.17;6.90;;;11.90;1.00;;;;;;4924412;29;20170;-91
2023/05/04 01:42:29;;;;;;;9.90;6.60;;;11.90;1.00;;;;;;4923371;29;20233;-90
2023/05/04 01:44:55;;;;;;;11.17;6.97;;;11.90;1.00;;;;;;4924569;29;20185;-91
2023/05/04 01:47:21;;;;;;;9.27;6.30;;;11.80;1.00;;;;;;4931281;29;20177;-90
2023/05/04 01:49:47;;;;;;;10.10;7.33;;;11.90;1.00;;;;;;4934703;29;20202;-89
2023/05/04 01:52:13;;;;;;;8.73;6.73;;;11.90;1.00;;;;;;4921265;29;20537;-89
2023/05/04 01:54:38;;;;;;;12.60;6.57;;;11.80;1.00;;;;;;4923584;29;20255;-89
2023/05/04 01:57:05;;;;;;;13.80;6.70;;;11.80;1.00;;;;;;4922484;29;20537;-90
2023/05/04 01:59:31;;;;;;;9.30;6.30;;;11.80;1.00;;;;;;4920622;29;20231;-88
2023/05/04 02:01:56;;;;;;;11.30;6.57;;;11.80;1.00;;;;;;4921748;29;20347;-89
2023/05/04 02:04:22;;;;;;;9.60;6.50;;;11.80;1.00;;;;;;4925531;29;20577;-85
2023/05/04 02:06:48;;;;;;;8.30;6.20;;;11.80;1.00;;;;;;4924170;29;20603;-83
2023/05/04 02:09:14;;;;;;;12.27;7.30;;;11.80;1.00;;;;;;4925575;29;20233;-84
2023/05/04 02:11:41;;;;;;;9.17;6.60;;;11.80;1.00;;;;;;4924636;29;20185;-86
2023/05/04 02:14:07;;;;;;;9.07;7.27;;;11.70;1.00;;;;;;4923635;29;20228;-88
2023/05/04 02:16:32;;;;;;;6.87;5.77;;;11.70;1.00;;;;;;4922041;29;20177;-89
2023/05/04 02:18:58;;;;;;;8.90;6.50;;;11.60;1.00;;;;;;4921611;29;20181;-84
2023/05/04 02:21:24;;;;;;;10.43;6.77;;;11.60;1.00;;;;;;4922711;29;20221;-82
2023/05/04 02:23:50;;;;;;;10.57;7.00;;;11.60;1.00;;;;;;4922687;29;20174;-81
2023/05/04 02:26:15;;;;;;;11.17;6.57;;;11.60;1.00;;;;;;4920634;29;20177;-87
2023/05/04 02:28:42;;;;;;;8.53;6.43;;;11.50;1.00;;;;;;4920253;29;20193;-89
2023/05/04 02:31:08;;;;;;;9.77;7.23;;;11.50;1.00;;;;;;4920895;29;20180;-82
2023/05/04 02:33:35;;;;;;;10.40;6.83;;;11.50;1.00;;;;;;4919924;29;20288;-91
2023/05/04 02:36:00;;;;;;;10.70;7.43;;;11.50;1.00;;;;;;4922043;29;20646;-88
2023/05/04 02:38:26;;;;;;;12.97;7.30;;;11.50;1.00;;;;;;4921392;29;20182;-90
2023/05/04 02:40:52;;;;;;;10.30;6.80;;;11.50;1.00;;;;;;4921070;29;20513;-90
2023/05/04 02:43:17;;;;;;;11.67;7.03;;;11.40;1.00;;;;;;4922360;29;20202;-84
2023/05/04 02:45:46;;;;;;;9.47;6.87;;;11.50;1.00;;;;;;4920644;29;20213;-90
2023/05/04 02:48:12;;;;;;;10.90;7.03;;;11.50;1.00;;;;;;4922819;29;20178;-85
2023/05/04 02:50:37;;;;;;;11.00;7.27;;;11.50;1.00;;;;;;4942909;29;20162;-88
2023/05/04 02:53:04;;;;;;;11.30;7.03;;;11.50;1.00;;;;;;4942493;29;20189;-84
2023/05/04 02:56:18;;;;;;;9.03;6.70;;;11.40;1.00;;;;;;4941691;29;20193;-85
2023/05/04 02:58:44;;;;;;;9.97;7.17;;;11.50;1.00;;;;;;4921877;29;20646;-89
2023/05/04 03:01:10;;;;;;;12.70;7.00;;;11.50;1.00;;;;;;4922115;29;20233;-90
2023/05/04 03:03:36;;;;;;;10.20;7.57;;;11.40;1.00;;;;;;4941933;29;20162;-84
2023/05/04 03:06:01;;;;;;;13.00;7.37;;;11.40;1.00;;;;;;4942033;29;20230;-82
2023/05/04 03:08:29;;;;;;;13.27;7.30;;;11.40;1.00;;;;;;4939347;29;20181;-91
2023/05/04 03:10:54;;;;;;;9.03;7.20;;;11.30;1.00;;;;;;4923163;29;20635;-90
2023/05/04 03:13:47;;;;;;;14.20;7.77;;;11.20;1.00;;;;;;4922897;29;20174;-90
2023/05/04 03:16:13;;;;;;;10.63;7.53;;;11.30;1.00;;;;;;4928851;29;20248;-90
2023/05/04 03:18:38;;;;;;;10.73;7.67;;;11.20;1.00;;;;;;4931715;29;20536;-86
2023/05/04 03:21:04;;;;;;;11.57;7.43;;;11.20;1.00;;;;;;4934006;29;20233;-90
2023/05/04 03:23:30;;;;;;;9.77;7.00;;;11.20;1.00;;;;;;4941148;29;20186;-89
2023/05/04 03:25:55;;;;;;;11.83;7.77;;;11.10;1.00;;;;;;4942168;29;20169;-86
2023/05/04 03:28:21;;;;;;;10.87;7.03;;;11.20;1.00;;;;;;4941340;29;20189;-86
2023/05/04 03:30:48;;;;;;;11.20;7.10;;;11.20;1.00;;;;;;4942315;29;20170;-88
2023/05/04 03:33:14;;;;;;;9.83;6.53;;;11.20;1.00;;;;;;4937992;29;20185;-91
2023/05/04 03:35:40;;;;;;;12.80;7.73;;;11.10;1.00;;;;;;4933223;29;20538;-89
2023/05/04 03:38:10;;;;;;;10.03;7.17;;;11.10;1.00;;;;;;4931680;29;20190;-87
2023/05/04 03:40:42;;;;;;;12.40;7.87;;;11.10;1.00;;;;;;4923178;29;20254;-90
2023/05/04 03:43:08;;;;;;;14.27;7.07;;;11.10;1.00;;;;;;4921992;29;20190;-90
2023/05/04 03:45:34;;;;;;;9.57;6.83;;;11.10;1.00;;;;;;4922881;29;20229;-89
2023/05/04 03:48:00;;;;;;;14.10;7.77;;;11.10;1.00;;;;;;4912026;29;20174;-86
2023/05/04 03:50:27;;;;;;;13.40;7.67;;;11.20;1.00;;;;;;4940198;29;20153;-85
2023/05/04 03:52:53;;;;;;;11.37;7.00;;;11.10;1.00;;;;;;4932170;29;20185;-89
2023/05/04 03:55:18;;;;;;;12.30;7.40;;;11.10;1.00;;;;;;4932713;29;20220;-86
2023/05/04 03:57:45;;;;;;;10.60;8.20;;;11.10;1.00;;;;;;4933373;29;20178;-85
2023/05/04 04:00:14;;;;;;;10.20;8.03;;;11.20;1.00;;;;;;4931832;29;20166;-87
2023/05/04 04:02:40;;;;;;;13.70;7.80;;;11.10;1.00;;;;;;4934942;29;20165;-89
2023/05/04 04:05:08;;;;;;;12.30;8.10;;;11.10;1.00;;;;;;4950846;29;20187;-88
2023/05/04 04:07:34;;;;;;;12.00;7.23;;;11.10;1.00;;;;;;4954680;29;20165;-90
2023/05/04 04:10:02;;;;;;;11.57;8.17;;;11.10;1.00;;;;;;4943149;29;20233;-88
2023/05/04 04:12:28;;;;;;;13.33;8.37;;;11.10;1.00;;;;;;4943211;29;20196;-90
2023/05/04 04:14:54;;;;;;;14.20;8.23;;;11.00;1.00;;;;;;4953397;29;20212;-91
2023/05/04 04:17:19;;;;;;;11.97;8.43;;;11.10;1.00;;;;;;4956875;29;20183;-90
2023/05/04 04:19:45;;;;;;;14.13;8.80;;;11.00;1.00;;;;;;4943269;29;20184;-87
2023/05/04 04:22:11;;;;;;;11.90;8.60;;;11.00;1.00;;;;;;4955367;28;20216;-88
2023/05/04 04:24:38;;;;;;;14.33;9.10;;;11.00;1.00;;;;;;4954311;29;20275;-88
2023/05/04 04:27:03;;;;;;;11.10;8.07;;;11.00;1.00;;;;;;4939315;29;20195;-88
2023/05/04 04:29:29;;;;;;;10.73;7.97;;;11.00;1.00;;;;;;4938750;29;20625;-91
2023/05/04 04:31:55;;;;;;;13.53;8.93;;;11.00;1.00;;;;;;4938020;29;20165;-90
2023/05/04 04:34:21;;;;;;;15.77;8.73;;;11.00;1.00;;;;;;4954793;29;20562;-90
2023/05/04 04:36:47;;;;;;;12.67;9.00;;;10.90;1.00;;;;;;4938703;29;20176;-91
2023/05/04 04:39:15;;;;;;;12.57;8.20;;;10.90;1.00;;;;;;4953287;29;20153;-89
2023/05/04 04:41:41;;;;;;;11.10;8.43;;;11.00;1.00;;;;;;4951741;29;20181;-89
2023/05/04 04:44:08;;;;;;;12.37;8.63;;;10.90;1.00;;;;;;4952618;29;20176;-88
2023/05/04 04:46:35;;;;;;;15.63;8.27;;;10.90;1.00;;;;;;4956105;29;20188;-80
2023/05/04 04:49:01;;;;;;;10.37;7.77;;;10.90;1.00;;;;;;4958327;29;20180;-91
2023/05/04 04:51:28;;;;;;;14.40;8.47;;;10.80;1.00;;;;;;4972952;28;20177;-82
2023/05/04 04:53:56;;;;;;;17.30;9.30;;;10.90;1.00;;;;;;4958966;28;20723;-85
2023/05/04 04:56:22;;;;;;;13.07;9.30;;;11.00;1.00;;;;;;4949392;29;20173;-90
2023/05/04 04:58:49;;;;;;;16.23;9.77;;;10.90;1.00;;;;;;4947212;29;20157;-88
2023/05/04 05:01:18;;;;;;;11.33;8.47;;;10.90;1.00;;;;;;4948516;29;20185;-82
2023/05/04 05:03:44;;;;;;;13.50;8.17;;;10.80;1.00;;;;;;4962045;29;20169;-85
2023/05/04 05:06:13;;;;;;;13.80;8.20;;;10.90;1.00;;;;;;4945659;29;20153;-90
2023/05/04 05:08:42;;;;;;;11.43;8.27;;;10.90;1.00;;;;;;4943817;29;20225;-89
2023/05/04 05:11:09;;;;;;;10.03;7.87;;;10.80;1.00;;;;;;4956818;29;20267;-87
2023/05/04 05:13:37;;;;;;;14.00;9.37;;;10.90;1.00;;;;;;4939493;29;20220;-89
2023/05/04 05:16:27;;;;;;;13.20;8.83;;;10.90;1.00;;;;;;4946469;29;20145;-81
2023/05/04 05:18:54;;;;;;;15.90;8.67;;;10.90;1.00;;;;;;4956095;29;20184;-82
2023/05/04 05:21:20;;;;;;;9.97;8.30;;;10.90;1.00;;;;;;4955062;28;20181;-83
2023/05/04 05:23:45;;;;;;;14.53;8.50;;;10.90;1.00;;;;;;4949266;29;20265;-85
2023/05/04 05:26:15;;;;;;;15.00;8.90;;;11.00;1.00;;;;;;4948826;29;20245;-90
2023/05/04 05:28:41;;;;;;;14.53;8.57;;;11.00;1.00;;;;;;4939381;29;20692;-89
2023/05/04 05:31:08;;;;;;;11.77;8.23;;;11.00;1.00;;;;;;4938012;29;20617;-88
2023/05/04 05:33:34;;;;;;;12.37;8.60;;;11.00;1.00;;;;;;4940055;29;20196;-86
2023/05/04 05:35:59;;;;;;;10.03;8.13;;;11.00;1.00;;;;;;4940213;29;20577;-84
2023/05/04 05:38:26;;;;;;;10.50;8.10;;;11.10;1.00;;;;;;4923055;29;20642;-86
2023/05/04 05:40:52;;;;;;;12.77;7.93;;;11.10;1.00;;;;;;4921377;29;20173;-84
2023/05/04 05:43:18;;;;;;;11.30;8.30;;;11.20;1.00;;;;;;4919873;29;20638;-90
2023/05/04 05:45:44;;;;;;;17.63;9.20;;;11.20;1.00;;;;;;4918752;29;20281;-89
2023/05/04 05:48:09;;;;;;;16.97;8.50;;;11.30;1.00;;;;;;4924339;29;20186;-89
2023/05/04 05:50:35;;;;;;;13.27;8.10;;;11.40;1.00;;;;;;4921972;29;20166;-80
2023/05/04 05:53:01;;;;;;;12.67;7.57;;;11.40;1.00;;;;;;4924317;29;20243;-83
2023/05/04 05:55:26;;;;;;;14.73;8.13;;;11.30;1.00;;;;;;4941676;28;20259;-85
2023/05/04 05:57:53;;;;;;;11.00;7.50;;;11.40;1.00;;;;;;4934724;29;20173;-80
2023/05/04 06:00:18;;;;;;;10.70;8.00;;;11.40;1.00;;;;;;4929420;29;20182;-81
2023/05/04 06:02:56;;;;;;;11.53;7.90;;;11.50;1.00;;;;;;4927424;29;20252;-81
2023/05/04 06:05:24;;;;;;;13.73;8.30;;;11.50;1.00;;;;;;4939257;29;20179;-80
2023/05/04 06:07:49;;;;;;;10.17;7.40;;;11.60;1.00;;;;;;4941319;29;20185;-82
2023/05/04 06:10:15;;;;;;;12.17;8.03;;;11.70;1.00;;;;;;4941018;29;20206;-86
2023/05/04 06:12:41;;;;;;;13.80;8.53;;;11.80;1.00;;;;;;4927970;29;20197;-87
2023/05/04 06:15:08;;;;;;;10.07;7.03;;;11.90;1.00;;;;;;4954050;28;20196;-86
2023/05/04 06:17:34;;;;;;;11.80;7.93;;;12.00;1.00;;;;;;4958579;29;20369;-86
2023/05/04 06:19:59;;;;;;;15.10;7.93;;;12.10;1.00;;;;;;4959052;28;20177;-87
2023/05/04 06:22:28;;;;;;;11.70;7.07;;;12.10;1.00;;;;;;4948155;29;20583;-84
2023/05/04 06:24:55;;;;;;;11.90;7.90;;;12.30;1.00;;;;;;4939425;29;20512;-87
2023/05/04 06:27:22;;;;;;;12.87;7.70;;;12.40;1.00;;;;;;4934789;29;20173;-85
2023/05/04 06:29:47;;;;;;;12.57;7.70;;;12.60;1.00;;;;;;4940768;28;20237;-80
2023/05/04 06:32:13;;;;;;;12.27;8.87;;;12.60;1.00;;;;;;4938429;29;20163;-82
2023/05/04 06:34:39;;;;;;;23.23;7.60;;;12.70;1.00;;;;;;4935983;29;20237;-82
2023/05/04 06:37:04;;;;;;;10.37;6.90;;;12.80;1.00;;;;;;4934853;29;20147;-88
2023/05/04 06:39:32;;;;;;;12.00;7.27;;;12.80;1.00;;;;;;4928639;29;20247;-86
2023/05/04 06:42:01;;;;;;;12.63;6.90;;;12.80;1.00;;;;;;4923584;29;20618;-90
2023/05/04 06:44:27;;;;;;;13.03;6.67;;;12.90;1.00;;;;;;4922002;29;20221;-88
2023/05/04 06:46:53;;;;;;;11.13;7.10;;;13.00;1.00;;;;;;4922609;29;20584;-90
2023/05/04 06:49:18;;;;;;;11.63;6.27;;;13.10;1.00;;;;;;4921222;29;20192;-88
2023/05/04 06:51:46;;;;;;;9.80;6.97;;;13.20;1.00;;;;;;4923054;29;20183;-90
2023/05/04 06:54:13;;;;;;;12.57;7.40;;;13.20;1.00;;;;;;4923626;29;20202;-90
2023/05/04 06:56:39;;;;;;;12.93;6.83;;;13.20;1.00;;;;;;4921509;29;20218;-88
2023/05/04 06:59:07;;;;;;;9.63;6.33;;;13.20;1.00;;;;;;4922396;29;20198;-88
2023/05/04 07:01:32;;;;;;;11.03;7.20;;;13.40;1.00;;;;;;4923005;29;20204;-90
2023/05/04 07:03:59;;;;;;;14.20;7.00;;;13.50;1.00;;;;;;4921389;29;20668;-91
2023/05/04 07:06:26;;;;;;;9.80;6.63;;;13.70;1.00;;;;;;4921005;29;20207;-88
2023/05/04 07:08:51;;;;;;;14.37;6.97;;;13.80;1.00;;;;;;4932926;28;20157;-83
2023/05/04 07:11:17;;;;;;;8.30;5.97;;;14.00;1.00;;;;;;4933925;29;20202;-83
2023/05/04 07:13:43;;;;;;;10.80;6.40;;;13.90;1.00;;;;;;4926257;29;20197;-89
2023/05/04 07:16:14;;;;;;;10.83;6.20;;;13.90;1.00;;;;;;4929599;29;20178;-89
2023/05/04 07:18:40;;;;;;;8.07;5.80;;;14.10;1.00;;;;;;4925713;29;20185;-90
2023/05/04 07:21:20;;;;;;;10.20;6.20;;;14.20;1.00;;;;;;4921118;29;20703;-91
2023/05/04 07:23:47;;;;;;;10.03;6.50;;;14.20;1.00;;;;;;4922382;29;20175;-89
2023/05/04 07:26:16;;;;;;;7.93;6.73;;;14.30;1.00;;;;;;4922220;29;20539;-90
2023/05/04 07:28:48;;;;;;;8.80;6.47;;;14.30;1.00;;;;;;4921512;29;20166;-87
2023/05/04 07:31:14;;;;;;;8.03;5.63;;;14.30;1.00;;;;;;4917555;29;20259;-82
2023/05/04 07:33:41;;;;;;;11.03;5.80;;;14.30;1.00;;;;;;4920301;29;20175;-83
2023/05/04 07:36:06;;;;;;;12.20;5.73;;;14.40;1.00;;;;;;4920021;29;20216;-87
2023/05/04 07:38:33;;;;;;;9.37;5.80;;;14.60;1.00;;;;;;4942833;29;20185;-87
2023/05/04 07:40:59;;;;;;;9.07;6.30;;;14.60;1.00;;;;;;4947813;29;20177;-87
2023/05/04 07:43:25;;;;;;;9.33;6.00;;;14.80;1.00;;;;;;4943786;29;20184;-86
2023/05/04 07:45:52;;;;;;;9.43;5.90;;;14.90;1.00;;;;;;4942186;29;20182;-88
2023/05/04 07:48:19;;;;;;;9.40;5.80;;;15.10;1.00;;;;;;4940807;29;20287;-86
2023/05/04 07:50:45;;;;;;;11.07;5.20;;;15.20;1.00;;;;;;4940522;29;20173;-85
2023/05/04 07:53:11;;;;;;;9.23;5.53;;;15.30;1.00;;;;;;4939440;29;20165;-89
2023/05/04 07:55:37;;;;;;;8.23;6.00;;;15.40;1.00;;;;;;4941722;29;20240;-88
2023/05/04 07:58:03;;;;;;;7.33;5.40;;;15.50;1.00;;;;;;4940172;29;20253;-89
2023/05/04 08:00:29;;;;;;;11.37;6.20;;;15.60;1.00;;;;;;4941535;29;20197;-89
2023/05/04 08:02:55;;;;;;;10.67;5.90;;;15.70;1.00;;;;;;4940832;29;20181;-89
2023/05/04 08:05:21;;;;;;;8.70;5.60;;;15.90;1.00;;;;;;4945008;29;20251;-86
2023/05/04 08:07:47;;;;;;;7.53;5.07;;;16.00;1.00;;;;;;4942287;29;20684;-91
2023/05/04 08:10:12;;;;;;;10.23;5.40;;;16.10;1.00;;;;;;4941429;29;20530;-89
2023/05/04 08:12:41;;;;;;;7.23;5.30;;;16.10;1.00;;;;;;4942418;29;20201;-90
2023/05/04 08:15:09;;;;;;;9.13;5.80;;;16.30;1.00;;;;;;4938984;29;20260;-90
2023/05/04 08:17:39;;;;;;;14.50;5.43;;;16.50;1.00;;;;;;4956040;29;20196;-81
2023/05/04 08:20:08;;;;;;;10.13;5.33;;;16.50;1.00;;;;;;4958078;28;20205;-82
2023/05/04 08:22:34;;;;;;;9.10;5.93;;;16.60;99.90;;;;;;4958450;29;20216;-87
2023/05/04 08:25:21;;;;;;;10.50;5.53;;;16.70;1.00;;;;;;4954238;29;20177;-84
2023/05/04 08:27:55;;;;;;;9.03;4.77;;;16.80;99.90;;;;;;4940279;29;20224;-89
2023/05/04 08:30:25;;;;;;;8.53;5.50;;;16.80;99.90;;;;;;4937466;29;20240;-90
2023/05/04 08:32:54;;;;;;;8.27;5.10;;;17.00;99.90;;;;;;4937218;29;20212;-89
2023/05/04 08:35:20;;;;;;;10.10;5.43;;;17.10;99.90;;;;;;4937035;29;20218;-88
2023/05/04 08:37:47;;;;;;;10.43;5.83;;;17.20;99.90;;;;;;4936409;29;20543;-90
2023/05/04 08:40:13;;;;;;;9.67;6.00;;;17.30;99.90;;;;;;4943461;29;20205;-82
2023/05/04 08:42:43;;;;;;;17.57;6.00;;;17.40;99.90;;;;;;4950207;29;20185;-89
2023/05/04 08:45:09;;;;;;;9.83;5.30;;;17.60;99.90;;;;;;4947376;29;20165;-89
2023/05/04 08:47:35;;;;;;;8.20;5.30;;;17.70;99.90;;;;;;4948150;28;20161;-88
2023/05/04 08:50:01;;;;;;;11.30;5.33;;;17.70;99.90;;;;;;4959207;28;20188;-82
2023/05/04 08:52:27;;;;;;;7.87;4.97;;;17.80;99.90;;;;;;4957531;29;20168;-84
2023/05/04 08:54:57;;;;;;;7.67;5.00;;;18.00;99.90;;;;;;4946508;29;20213;-85
2023/05/04 08:57:25;;;;;;;6.17;5.00;;;17.90;99.90;;;;;;4939733;29;20161;-87
2023/05/04 08:59:53;;;;;;;7.97;5.50;;;18.00;99.90;;;;;;4941485;29;20174;-89
2023/05/04 09:02:21;;;;;;;9.03;5.60;;;18.10;99.90;;;;;;4945386;29;20321;-88
2023/05/04 09:04:51;;;;;;;6.30;5.10;;;18.10;99.90;;;;;;4946026;29;20175;-90
2023/05/04 09:07:17;;;;;;;7.70;5.03;;;18.10;99.90;;;;;;4954013;28;20173;-86
2023/05/04 09:09:43;;;;;;;8.70;4.97;;;18.10;99.90;;;;;;4963363;28;20200;-84
2023/05/04 09:12:09;;;;;;;11.07;5.00;;;18.20;99.90;;;;;;4962522;28;20255;-83
2023/05/04 09:14:35;;;;;;;10.43;5.27;;;18.20;99.90;;;;;;4955630;29;20607;-82
2023/05/04 09:17:02;;;;;;;8.20;5.07;;;18.40;99.90;;;;;;4945314;29;20209;-89
2023/05/04 09:19:32;;;;;;;7.73;5.10;;;18.50;99.90;;;;;;4948753;29;20198;-90
2023/05/04 09:22:12;;;;;;;10.73;5.20;;;18.60;99.90;;;;;;4949513;29;20192;-91
2023/05/04 09:24:38;;;;;;;7.40;4.80;;;18.60;99.90;;;;;;4953822;29;20173;-89
2023/05/04 09:27:11;;;;;;;10.03;4.63;;;18.60;99.90;;;;;;4955200;29;20176;-92
2023/05/04 09:29:39;;;;;;;7.53;4.70;;;18.70;99.90;;;;;;4958121;29;20170;-88
2023/05/04 09:32:09;;;;;;;6.73;4.93;;;18.80;99.90;;;;;;4960643;29;20178;-88
2023/05/04 09:34:52;;;;;;;8.37;5.10;;;18.90;90.50;;;;;;4941846;29;20207;-88
2023/05/04 09:37:20;;;;;;;7.97;4.10;;;19.00;99.90;;;;;;4953925;29;20262;-79
2023/05/04 09:39:55;;;;;;;6.53;4.10;;;19.30;1.00;;;;;;4950637;29;20188;-91
2023/05/04 09:42:26;;;;;;;6.57;4.20;;;19.70;1.00;;;;;;4946291;29;20168;-91
2023/05/04 09:45:03;;;;;;;8.93;4.20;;;20.00;99.90;;;;;;4944137;29;20640;-90
2023/05/04 09:47:45;;;;;;;6.37;4.20;;;20.30;99.90;;;;;;4944738;29;20185;-90
2023/05/04 09:50:20;;;;;;;8.10;4.00;;;20.60;1.00;;;;;;4947478;28;20174;-89
2023/05/04 09:52:47;;;;;;;7.80;4.50;;;20.60;1.00;;;;;;4943587;29;20203;-89
2023/05/04 09:55:24;;;;;;;6.73;3.97;;;20.50;1.00;;;;;;4926044;29;20598;-89
2023/05/04 09:57:50;;;;;;;7.83;4.07;;;20.40;99.90;;;;;;4942929;29;20208;-91
2023/05/04 10:00:17;;;;;;;7.23;4.27;;;20.60;99.90;;;;;;4942330;29;20684;-91
2023/05/04 10:02:45;;;;;;;7.53;3.90;;;20.80;99.90;;;;;;4943659;29;20187;-86
2023/05/04 10:05:15;;;;;;;6.70;4.10;;;21.00;1.00;;;;;;4942253;29;20633;-87
2023/05/04 10:07:45;;;;;;;8.60;4.50;;;20.70;41.20;;;;;;4941798;29;20173;-89
2023/05/04 10:10:12;;;;;;;5.73;4.17;;;20.40;1.00;;;;;;4941848;29;20197;-86
2023/05/04 10:12:39;;;;;;;6.40;4.17;;;20.50;1.00;;;;;;4942433;29;20196;-83
2023/05/04 10:15:08;;;;;;;7.00;4.30;;;20.40;99.90;;;;;;4944022;29;20205;-85
2023/05/04 10:18:04;;;;;;;6.97;4.20;;;20.60;99.90;;;;;;4941420;29;20179;-88
2023/05/04 10:20:50;;;;;;;7.70;4.63;;;20.90;99.90;;;;;;4942386;29;20189;-92
2023/05/04 10:23:41;;;;;;;7.80;4.53;;;20.80;99.90;;;;;;4943167;29;20173;-92
2023/05/04 10:26:32;;;;;;;6.57;4.50;;;20.60;1.00;;;;;;4942989;29;20175;-91
2023/05/04 10:29:20;;;;;;;5.43;3.83;;;21.00;19.30;;;;;;4944897;29;20517;-88
2023/05/04 10:31:46;;;;;;;9.70;6.20;;;21.20;80.40;;;;;;4951905;29;20197;-85
2023/05/04 10:34:29;;;;;;;9.03;5.27;;;21.40;1.00;;;;;;4950368;29;20243;-90
2023/05/04 10:36:57;;;;;;;9.17;4.77;;;21.30;99.90;;;;;;4941858;29;20178;-88
2023/05/04 10:39:26;;;;;;;5.90;4.60;;;21.20;99.90;;;;;;4943731;29;20175;-88
2023/05/04 10:42:22;;;;;;;5.83;4.90;;;21.40;1.00;;;;;;4940520;29;20193;-89
2023/05/04 10:44:57;;;;;;;7.63;5.73;;;21.30;1.00;;;;;;4941419;29;20198;-89
2023/05/04 10:47:40;;;;;;;7.40;5.30;;;21.10;93.60;;;;;;4943073;29;20232;-88
2023/05/04 10:50:13;;;;;;;6.83;4.67;;;20.80;99.90;;;;;;4944990;29;20171;-90
2023/05/04 10:52:50;;;;;;;7.30;5.10;;;20.90;99.90;;;;;;4945052;29;20248;-89
2023/05/04 10:55:17;;;;;;;7.43;4.10;;;21.20;99.90;;;;;;4945253;29;20255;-92
2023/05/04 10:57:54;;;;;;;9.10;4.20;;;21.40;1.00;;;;;;4946386;29;20242;-88
2023/05/04 11:00:20;;;;;;;7.70;3.83;;;21.80;99.90;;;;;;4946360;29;20181;-90
2023/05/04 11:02:48;;;;;;;5.40;3.83;;;22.00;99.90;;;;;;4944051;29;20499;-90
2023/05/04 11:05:19;;;;;;;6.30;4.00;;;21.80;44.70;;;;;;4945761;29;20199;-93
2023/05/04 11:07:51;;;;;;;12.40;3.87;;;21.90;1.00;;;;;;4945562;29;20179;-90
2023/05/04 11:10:22;;;;;;;9.47;3.63;;;22.20;46.90;;;;;;4946072;29;20215;-91
2023/05/04 11:12:49;;;;;;;4.30;3.60;;;22.20;99.90;;;;;;4955212;29;20214;-80
2023/05/04 11:15:15;;;;;;;6.47;3.80;;;22.00;31.80;;;;;;4940753;29;20224;-84
2023/05/04 11:17:49;;;;;;;7.77;3.97;;;22.30;1.00;;;;;;4956806;29;20210;-87
2023/05/04 11:20:25;;;;;;;11.73;4.10;;;22.50;99.90;;;;;;4954470;29;20173;-87
2023/05/04 11:23:09;;;;;;;9.93;3.70;;;22.70;1.00;;;;;;4949908;29;20252;-88
2023/05/04 11:25:36;;;;;;;5.50;3.50;;;22.70;1.00;;;;;;4947503;29;20261;-86
2023/05/04 11:28:02;;;;;;;8.17;4.27;;;22.40;1.00;;;;;;4949652;29;20177;-87
2023/05/04 11:30:35;;;;;;;6.07;3.30;;;22.50;1.00;;;;;;4945178;29;20336;-90
2023/05/04 11:33:03;;;;;;;9.53;4.10;;;22.30;99.90;;;;;;4942890;29;20194;-89
2023/05/04 11:35:29;;;;;;;8.20;3.70;;;22.30;1.00;;;;;;4942389;29;20757;-88
2023/05/04 11:37:56;;;;;;;7.27;3.57;;;22.40;1.00;;;;;;4943847;29;20165;-87
2023/05/04 11:40:24;;;;;;;5.70;3.77;;;22.70;99.90;;;;;;4959183;28;20191;-84
2023/05/04 11:42:51;;;;;;;5.73;3.10;;;22.80;2.40;;;;;;4954753;28;20187;-81
2023/05/04 11:45:26;;;;;;;6.63;3.13;;;22.60;1.00;;;;;;4954155;28;20191;-89
2023/05/04 11:47:56;;;;;;;6.57;3.50;;;22.40;1.00;;;;;;4941044;29;20697;-85
2023/05/04 11:50:30;;;;;;;6.03;3.30;;;22.50;99.90;;;;;;4940863;29;20175;-80
2023/05/04 11:53:22;;;;;;;7.10;3.60;;;22.90;1.00;;;;;;4942001;29;20164;-84
2023/05/04 11:55:52;;;;;;;5.20;3.30;;;22.90;99.90;;;;;;4938836;29;20220;-84
2023/05/04 11:58:24;;;;;;;6.73;3.30;;;22.90;99.90;;;;;;4942519;29;20169;-91
2023/05/04 12:00:55;;;;;;;7.70;3.30;;;23.10;99.90;;;;;;4960395;28;20157;-90
2023/05/04 12:03:32;;;;;;;6.27;2.70;;;23.50;1.00;;;;;;4959731;28;20195;-81
2023/05/04 12:05:58;;;;;;;6.87;2.77;;;23.20;1.00;;;;;;4938353;29;20192;-88
2023/05/04 12:08:31;;;;;;;5.43;3.40;;;23.30;1.00;;;;;;4925017;29;20642;-87
2023/05/04 12:11:25;;;;;;;6.20;2.80;;;23.60;1.00;;;;;;4924595;29;20184;-87
2023/05/04 12:14:15;;;;;;;6.47;2.90;;;23.50;7.80;;;;;;4923093;29;20180;-81
2023/05/04 12:16:53;;;;;;;6.63;2.63;;;23.60;1.00;;;;;;4922696;29;20177;-86
2023/05/04 12:19:18;;;;;;;4.43;2.10;;;23.70;1.00;;;;;;4922706;29;20633;-88
2023/05/04 12:21:52;;;;;;;5.93;2.70;;;23.80;99.90;;;;;;4922709;29;20201;-86
2023/05/04 12:24:21;;;;;;;4.83;2.57;;;23.80;99.90;;;;;;4924827;29;20169;-85
2023/05/04 12:26:47;;;;;;;5.37;2.63;;;23.80;1.00;;;;;;4921740;29;20583;-90
2023/05/04 12:29:13;;;;;;;6.93;2.87;;;23.70;99.90;;;;;;4922709;29;20208;-89
2023/05/04 12:31:38;;;;;;;8.57;2.90;;;23.60;99.90;;;;;;4923836;29;20219;-86
2023/05/04 12:34:05;;;;;;;4.77;2.20;;;23.70;99.90;;;;;;4928094;29;20205;-89
2023/05/04 12:36:31;;;;;;;5.20;2.67;;;24.20;72.20;;;;;;4934255;29;20177;-87
2023/05/04 12:38:57;;;;;;;7.63;2.90;;;24.50;1.00;;;;;;4938913;29;20285;-85
2023/05/04 12:41:22;;;;;;;3.67;2.43;;;24.70;1.00;;;;;;4938662;29;20206;-86
2023/05/04 12:43:48;;;;;;;5.17;2.43;;;24.90;1.00;;;;;;4943144;29;20249;-84
2023/05/04 12:46:21;;;;;;;3.67;2.20;;;25.00;1.00;;;;;;4936530;29;20634;-83
2023/05/04 12:48:57;;;;;;;6.87;2.60;;;25.30;99.90;;;;;;4931677;29;20184;-88
2023/05/04 12:51:23;;;;;;;2.43;1.83;;;25.20;99.90;;;;;;4932900;29;20256;-83
2023/05/04 12:53:50;;;;;;;5.53;2.40;;;24.80;99.90;;;;;;4934666;29;20182;-84
2023/05/04 12:56:18;;;;;;;6.07;2.77;;;24.40;85.40;;;;;;4935110;29;20178;-84
2023/05/04 12:58:45;;;;;;;5.37;2.80;;;24.50;99.90;;;;;;4925142;29;20188;-83
2023/05/04 13:01:11;;;;;;;5.47;2.53;;;25.00;99.90;;;;;;4925701;29;20178;-86
2023/05/04 13:03:37;;;;;;;3.57;2.50;;;25.30;99.90;;;;;;4931754;29;20174;-88